XS89 weather

Yates Airport
San Antonio, Texas, United States

Public forecast

Using degrees Fahrenheit for public forecast. Weather courtesy of forecast.io.

Closest aviation weather report (METAR) to Yates Airport

Closest report is San Antonio International Airport, 5.3 nm (9.8 km) S. Retrieved 2020/04/09 12:51 UTC (19 minutes ago):

KSAT 091251Z 00000KT 8SM BKN170 BKN250 22/21 A2990 RMK AO2 SLP106 T02170206

Closest aviation forecast (TAF) to Yates Airport

Closest forecast is San Antonio International Airport, 5.3 nm (9.8 km) S. Retrieved 2020/04/09 12:22 UTC (48 minutes ago):

TAF KSAT 091120Z 0912/1018 VRB03KT 6SM BR FEW015 BKN200 FM091500 20005KT P6SM BKN200 FM092200 17005KT P6SM SHRA VCTS SCT040CB BKN100 TEMPO 0922/1001 VRB15G25KT 2SM +TSRA BKN009CB OVC020 FM100100 36011KT P6SM VCSH BKN035 FM100700 01007KT P6SM BKN015 FM101500 04010KT P6SM BKN040